Time;durP1;ratioP1;P1;durP2;ratioP2;P2;SDS_P1;SDS_P2;PMS_P1;PMS_P2;Temp;Humidity;BMP_temperature;BMP_pressure;BME280_temperature;BME280_humidity;BME280_pressure;Samples;Min_cycle;Max_cycle;Signal;HPM_P1;HPM_P2
2022/08/12 00:42:59;;;;;;;2.93;2.63;;;19.80;48.60;;;;;;5035632;28;20869;-58
2022/08/12 00:46:29;;;;;;;3.30;3.00;;;19.80;48.80;;;;;;5036310;28;20461;-58
2022/08/12 00:48:14;;;;;;;4.10;2.77;;;19.70;49.00;;;;;;5036044;28;20552;-58
2022/08/12 00:50:45;;;;;;;3.70;2.97;;;19.70;49.10;;;;;;5035926;28;20564;-59
2022/08/12 00:53:13;;;;;;;2.50;2.30;;;19.60;49.10;;;;;;5035442;28;21016;-58
2022/08/12 00:55:45;;;;;;;6.23;3.60;;;19.60;49.30;;;;;;5036732;28;20516;-58
2022/08/12 00:58:16;;;;;;;4.13;2.33;;;19.60;49.40;;;;;;5036025;28;20465;-58
2022/08/12 01:00:44;;;;;;;5.23;2.33;;;19.50;49.50;;;;;;5035728;28;20488;-58
2022/08/12 01:03:15;;;;;;;3.73;3.17;;;19.50;49.60;;;;;;5035403;28;21087;-58
2022/08/12 01:11:31;;;;;;;5.07;3.00;;;19.40;49.90;;;;;;5013525;28;20514;-58
2022/08/12 01:14:00;;;;;;;3.00;2.70;;;19.40;50.00;;;;;;5035637;28;20479;-58
2022/08/12 01:16:28;;;;;;;3.80;3.03;;;19.40;50.10;;;;;;5036120;28;20523;-59
2022/08/12 01:18:58;;;;;;;4.30;2.60;;;19.40;50.20;;;;;;5035874;28;20465;-59
2022/08/12 01:21:49;;;;;;;3.73;2.80;;;19.40;50.20;;;;;;5035612;28;20438;-58
2022/08/12 01:24:37;;;;;;;4.57;2.60;;;19.40;50.20;;;;;;5035566;28;20484;-58
2022/08/12 01:27:07;;;;;;;3.37;2.70;;;19.30;50.20;;;;;;5035450;28;20564;-57
2022/08/12 01:29:42;;;;;;;5.00;2.67;;;19.30;50.30;;;;;;5034260;28;20572;-58
2022/08/12 01:32:13;;;;;;;2.73;2.53;;;19.30;50.50;;;;;;5022666;28;20495;-58
2022/08/12 01:34:46;;;;;;;4.57;2.93;;;19.30;50.70;;;;;;5035998;28;20463;-57
2022/08/12 01:37:15;;;;;;;5.00;2.77;;;19.20;50.80;;;;;;5034661;28;20552;-57
2022/08/12 01:39:51;;;;;;;4.23;3.20;;;19.20;51.40;;;;;;5034695;28;20618;-58
2022/08/12 01:42:21;;;;;;;3.40;2.80;;;19.20;50.90;;;;;;5035317;28;20484;-57
2022/08/12 01:44:52;;;;;;;3.00;2.80;;;19.20;51.00;;;;;;5033751;28;20461;-58
2022/08/12 01:47:33;;;;;;;4.27;3.17;;;19.10;51.00;;;;;;5034484;28;20465;-58
2022/08/12 01:50:19;;;;;;;3.43;3.13;;;19.10;51.70;;;;;;5035080;28;20579;-58
2022/08/12 01:52:56;;;;;;;5.43;2.70;;;19.00;51.30;;;;;;5053425;22;20494;-57
2022/08/12 01:55:28;;;;;;;5.30;3.37;;;19.00;51.40;;;;;;5016411;28;20462;-57
2022/08/12 01:58:06;;;;;;;10.00;3.17;;;19.00;51.60;;;;;;5015972;28;20523;-59
2022/08/12 02:00:47;;;;;;;3.80;2.87;;;18.90;51.80;;;;;;5016675;28;20461;-58
2022/08/12 02:12:06;;;;;;;4.60;3.10;;;18.70;52.50;;;;;;4992131;28;20501;-58
2022/08/12 02:14:47;;;;;;;4.07;2.60;;;18.60;52.70;;;;;;4994598;28;21077;-56
2022/08/12 02:17:37;;;;;;;4.50;3.27;;;18.60;53.40;;;;;;5014086;28;20480;-58
2022/08/12 02:20:13;;;;;;;4.03;3.30;;;18.60;53.00;;;;;;5015114;28;20433;-58
2022/08/12 02:22:43;;;;;;;3.60;3.27;;;18.50;53.20;;;;;;5011949;28;20517;-58
2022/08/12 02:25:14;;;;;;;3.90;3.50;;;18.50;53.40;;;;;;5015325;28;20508;-58
2022/08/12 02:27:45;;;;;;;3.67;3.07;;;18.50;53.40;;;;;;5014817;28;20840;-57
2022/08/12 02:30:15;;;;;;;9.83;3.20;;;18.50;53.60;;;;;;5013587;28;20832;-58
2022/08/12 02:32:44;;;;;;;3.57;3.10;;;18.50;53.70;;;;;;5014118;28;20565;-58
2022/08/12 02:35:14;;;;;;;3.77;3.30;;;18.40;53.80;;;;;;5013474;28;20497;-58
2022/08/12 02:37:43;;;;;;;6.53;3.40;;;18.40;53.90;;;;;;5014280;28;20481;-57
2022/08/12 02:40:13;;;;;;;9.70;4.83;;;18.40;54.10;;;;;;5013799;28;20537;-57
2022/08/12 02:42:48;;;;;;;3.83;3.40;;;18.30;54.10;;;;;;5014047;28;20518;-58
2022/08/12 02:45:20;;;;;;;7.17;3.57;;;18.30;54.40;;;;;;5012055;28;20457;-59
2022/08/12 02:47:50;;;;;;;8.67;3.63;;;18.20;54.60;;;;;;4998364;28;20461;-58
2022/08/12 02:50:21;;;;;;;4.50;3.20;;;18.20;54.90;;;;;;5012906;28;20477;-59
2022/08/12 02:52:51;;;;;;;10.87;3.67;;;18.10;55.00;;;;;;5013888;28;20576;-59
2022/08/12 02:55:20;;;;;;;3.57;3.17;;;18.10;55.20;;;;;;5014536;28;20430;-58
2022/08/12 02:57:51;;;;;;;3.43;3.13;;;18.10;55.40;;;;;;5013629;28;20461;-58
2022/08/12 03:00:19;;;;;;;4.87;3.20;;;18.10;55.60;;;;;;5011539;28;20548;-59
2022/08/12 03:02:49;;;;;;;4.60;3.13;;;18.10;56.30;;;;;;5013879;28;20576;-58
2022/08/12 03:05:23;;;;;;;7.50;3.43;;;18.10;55.90;;;;;;5014145;28;20900;-58
2022/08/12 03:07:53;;;;;;;4.00;3.33;;;18.00;55.90;;;;;;5013827;28;20469;-58
2022/08/12 03:10:24;;;;;;;7.97;4.00;;;18.00;56.10;;;;;;5015167;28;20454;-57
2022/08/12 03:12:56;;;;;;;3.73;3.33;;;17.90;56.20;;;;;;5026654;28;20489;-58
2022/08/12 03:15:24;;;;;;;3.60;3.30;;;17.90;56.40;;;;;;5004697;28;20493;-58
2022/08/12 03:17:56;;;;;;;4.43;4.03;;;17.80;56.60;;;;;;5012725;28;20927;-57
2022/08/12 03:20:24;;;;;;;4.40;3.40;;;17.80;56.90;;;;;;5013802;28;20528;-57
2022/08/12 03:22:52;;;;;;;4.70;3.83;;;17.70;57.20;;;;;;5012635;28;20553;-58
2022/08/12 03:25:23;;;;;;;5.87;3.53;;;17.70;57.40;;;;;;5012894;28;20458;-58
2022/08/12 03:27:57;;;;;;;5.20;3.37;;;17.70;57.70;;;;;;5012534;28;20508;-59
2022/08/12 03:30:27;;;;;;;6.03;3.70;;;17.60;57.80;;;;;;5012459;28;20493;-58
2022/08/12 03:32:56;;;;;;;4.33;3.77;;;17.60;58.00;;;;;;5012284;28;21088;-58
2022/08/12 03:35:26;;;;;;;4.90;3.97;;;17.60;58.20;;;;;;5013117;28;20485;-58
2022/08/12 03:37:56;;;;;;;9.30;3.77;;;17.60;58.30;;;;;;5013411;28;20833;-59
2022/08/12 04:02:41;;;;;;;5.07;4.10;;;17.40;60.70;;;;;;5011481;28;20476;-58
2022/08/12 04:05:12;;;;;;;4.07;3.77;;;17.40;61.00;;;;;;5015355;28;20446;-58
2022/08/12 04:10:08;;;;;;;7.23;4.47;;;17.40;61.30;;;;;;5120483;27;20633;-59
2022/08/12 04:15:23;;;;;;;12.40;5.67;;;17.40;62.10;;;;;;5079141;28;20478;-58
2022/08/12 04:17:51;;;;;;;5.40;3.70;;;17.40;62.50;;;;;;5085241;28;20881;-59
2022/08/12 04:20:19;;;;;;;8.13;4.27;;;17.40;62.70;;;;;;5098689;28;20493;-58
2022/08/12 04:22:47;;;;;;;4.70;4.20;;;17.40;62.90;;;;;;5105800;28;20481;-59
2022/08/12 04:25:15;;;;;;;5.87;3.80;;;17.50;63.20;;;;;;5103685;28;20469;-59
2022/08/12 04:27:45;;;;;;;4.43;4.03;;;17.50;63.40;;;;;;5110523;28;20510;-57
2022/08/12 04:30:13;;;;;;;5.93;3.90;;;17.60;63.50;;;;;;5112879;28;20591;-58
2022/08/12 04:32:41;;;;;;;4.63;4.20;;;17.70;63.50;;;;;;5114085;28;21012;-58
2022/08/12 04:35:09;;;;;;;5.17;3.73;;;18.00;63.20;;;;;;5112908;28;20525;-59
2022/08/12 04:37:36;;;;;;;4.43;4.03;;;18.20;62.60;;;;;;5102826;28;20486;-59
2022/08/12 04:40:04;;;;;;;6.23;4.03;;;18.50;62.00;;;;;;5091888;28;20434;-58
2022/08/12 04:42:33;;;;;;;4.63;4.10;;;18.80;61.40;;;;;;5090349;28;20934;-58
2022/08/12 04:45:00;;;;;;;4.60;4.17;;;19.00;60.80;;;;;;5091127;28;20550;-57
2022/08/12 04:47:28;;;;;;;4.37;3.97;;;19.30;60.20;;;;;;5092422;28;20537;-58
2022/08/12 04:49:55;;;;;;;5.30;4.80;;;19.50;59.60;;;;;;5089637;28;20489;-56
2022/08/12 04:52:23;;;;;;;4.20;3.60;;;19.70;59.10;;;;;;5087275;28;20482;-58
2022/08/12 04:54:51;;;;;;;6.73;4.37;;;19.90;58.50;;;;;;5090662;28;20492;-58
2022/08/12 04:57:18;;;;;;;8.03;4.03;;;20.10;57.90;;;;;;5090655;28;20542;-59
2022/08/12 04:59:48;;;;;;;6.63;3.80;;;20.20;57.40;;;;;;5091743;28;20523;-58
2022/08/12 05:02:15;;;;;;;7.93;4.97;;;20.40;57.20;;;;;;5098519;28;20463;-57
2022/08/12 05:04:42;;;;;;;5.43;4.37;;;20.50;56.80;;;;;;5087478;28;20465;-58
2022/08/12 05:07:10;;;;;;;5.33;4.40;;;20.70;56.40;;;;;;5085903;28;20492;-59
2022/08/12 05:09:37;;;;;;;4.40;3.60;;;20.90;55.90;;;;;;5088635;28;21047;-58
2022/08/12 05:12:06;;;;;;;4.30;3.60;;;21.00;55.40;;;;;;5086490;28;20461;-58
2022/08/12 05:14:33;;;;;;;4.70;4.27;;;21.10;55.20;;;;;;5087893;28;20490;-59
2022/08/12 05:17:02;;;;;;;4.17;3.77;;;21.30;54.80;;;;;;5085438;28;20469;-57
2022/08/12 05:19:29;;;;;;;5.40;4.03;;;21.40;54.30;;;;;;5085861;28;20455;-56
2022/08/12 05:21:56;;;;;;;4.57;3.80;;;21.40;53.90;;;;;;5082085;28;20546;-58
2022/08/12 05:24:24;;;;;;;5.17;3.57;;;21.50;53.70;;;;;;5084970;28;20482;-58
2022/08/12 05:26:51;;;;;;;6.13;4.87;;;21.50;53.50;;;;;;5085820;28;20444;-57
2022/08/12 05:29:19;;;;;;;5.53;4.00;;;21.60;53.30;;;;;;5082531;28;20511;-57
2022/08/12 05:31:48;;;;;;;10.20;3.80;;;21.70;53.20;;;;;;5057608;28;20496;-57
2022/08/12 05:34:17;;;;;;;4.93;4.23;;;21.70;53.00;;;;;;5056366;28;20530;-57
2022/08/12 05:36:44;;;;;;;5.13;3.63;;;21.70;52.90;;;;;;5066997;28;20567;-57
2022/08/12 05:39:11;;;;;;;8.83;4.30;;;21.70;52.60;;;;;;5088786;28;20543;-57
2022/08/12 05:41:39;;;;;;;7.20;4.70;;;21.70;52.40;;;;;;5078667;28;20959;-57
2022/08/12 05:44:08;;;;;;;5.57;4.10;;;21.60;52.40;;;;;;5076135;28;20467;-57
2022/08/12 05:46:36;;;;;;;7.07;4.40;;;21.40;52.40;;;;;;5076273;28;20448;-57
2022/08/12 05:49:05;;;;;;;7.30;4.87;;;21.30;52.50;;;;;;5077165;28;20482;-57
2022/08/12 05:51:36;;;;;;;5.80;4.60;;;21.30;52.80;;;;;;5076287;28;20448;-57
2022/08/12 05:54:04;;;;;;;7.73;4.20;;;21.30;52.80;;;;;;5077218;28;20472;-58
2022/08/12 05:56:34;;;;;;;4.17;3.60;;;21.20;52.70;;;;;;5077200;28;20467;-57
2022/08/12 05:59:06;;;;;;;7.43;4.57;;;21.10;52.80;;;;;;5076077;28;20450;-57
2022/08/12 06:01:33;;;;;;;5.73;4.63;;;21.10;52.90;;;;;;5076096;28;20969;-56
2022/08/12 06:04:01;;;;;;;5.00;4.30;;;21.10;52.90;;;;;;5068083;28;20523;-57
2022/08/12 06:06:28;;;;;;;4.43;4.10;;;21.00;52.70;;;;;;5070191;28;20449;-59
2022/08/12 06:08:56;;;;;;;4.40;3.80;;;20.90;52.70;;;;;;5075026;28;20568;-58
2022/08/12 06:11:25;;;;;;;7.33;3.90;;;20.90;52.80;;;;;;5076016;28;20544;-59
2022/08/12 06:13:54;;;;;;;4.53;4.13;;;20.80;52.70;;;;;;5075190;28;20507;-59
2022/08/12 06:16:23;;;;;;;4.07;3.70;;;20.90;52.70;;;;;;5074273;28;20464;-58
2022/08/12 06:18:50;;;;;;;6.00;4.17;;;20.90;52.60;;;;;;5075663;28;20452;-58
2022/08/12 06:21:22;;;;;;;7.17;4.50;;;21.00;52.50;;;;;;5074287;28;20459;-58
2022/08/12 06:23:50;;;;;;;6.10;4.70;;;21.00;52.40;;;;;;5074660;28;20996;-59
2022/08/12 06:26:19;;;;;;;10.20;4.40;;;21.10;52.30;;;;;;5074783;28;20540;-60
2022/08/12 06:28:49;;;;;;;7.47;5.70;;;21.20;52.20;;;;;;5074997;28;20576;-59
2022/08/12 06:31:17;;;;;;;4.43;3.93;;;21.30;52.00;;;;;;5074365;28;20457;-58
2022/08/12 06:33:47;;;;;;;5.77;4.23;;;21.40;51.90;;;;;;5074713;28;20871;-59
2022/08/12 06:36:17;;;;;;;4.47;4.13;;;21.40;51.50;;;;;;5073698;28;20492;-58
2022/08/12 06:38:46;;;;;;;7.00;4.87;;;21.40;51.30;;;;;;5074932;28;20841;-58
2022/08/12 06:44:00;;;;;;;6.10;3.67;;;21.70;51.20;;;;;;5074634;28;20999;-58
2022/08/12 06:46:30;;;;;;;5.50;3.93;;;21.80;51.00;;;;;;5074580;28;20460;-59
2022/08/12 06:48:58;;;;;;;6.10;4.10;;;21.90;50.70;;;;;;5074255;28;20511;-58
2022/08/12 06:51:28;;;;;;;7.17;4.47;;;22.00;50.50;;;;;;5074140;28;20464;-59
2022/08/12 06:53:55;;;;;;;5.10;4.17;;;22.00;50.30;;;;;;5074441;28;20480;-58
2022/08/12 06:56:23;;;;;;;4.77;3.73;;;22.10;50.30;;;;;;5072779;28;20457;-59
2022/08/12 06:58:50;;;;;;;6.90;4.20;;;22.20;50.10;;;;;;5087818;28;20465;-58
2022/08/12 07:01:19;;;;;;;7.80;5.10;;;22.30;49.80;;;;;;5091134;28;20926;-59
2022/08/12 07:03:47;;;;;;;5.93;4.03;;;22.30;49.60;;;;;;5074989;28;20484;-58
2022/08/12 07:06:14;;;;;;;4.50;4.00;;;22.50;49.50;;;;;;5092001;28;20930;-58
2022/08/12 07:08:42;;;;;;;5.80;3.90;;;22.60;49.20;;;;;;5094048;28;20514;-58
2022/08/12 07:11:12;;;;;;;8.23;4.27;;;22.70;49.10;;;;;;5094584;28;20449;-58
2022/08/12 07:13:43;;;;;;;5.10;4.00;;;22.80;48.80;;;;;;5094499;28;20534;-57
2022/08/12 07:16:13;;;;;;;4.40;3.53;;;22.90;48.60;;;;;;5094675;28;20438;-59
2022/08/12 07:18:42;;;;;;;7.10;4.40;;;23.00;48.40;;;;;;5094791;28;20446;-57
2022/08/12 07:21:11;;;;;;;5.40;3.80;;;23.10;48.20;;;;;;5093898;28;20540;-58
2022/08/12 07:23:40;;;;;;;4.07;3.53;;;23.30;48.10;;;;;;5093538;28;20980;-58
2022/08/12 07:26:11;;;;;;;3.97;3.57;;;23.40;47.70;;;;;;5093739;28;20446;-58
2022/08/12 07:28:40;;;;;;;5.20;4.10;;;23.60;47.40;;;;;;5094515;28;20453;-59
2022/08/12 07:31:08;;;;;;;4.80;4.00;;;23.70;47.00;;;;;;5097547;28;20476;-58
2022/08/12 07:33:38;;;;;;;3.80;3.40;;;23.80;46.80;;;;;;5103933;28;20513;-57
2022/08/12 07:36:09;;;;;;;5.40;3.67;;;23.90;46.50;;;;;;5103358;28;20472;-57
2022/08/12 07:38:38;;;;;;;6.60;3.57;;;24.10;46.40;;;;;;5097781;28;20531;-58
2022/08/12 07:41:10;;;;;;;4.57;3.43;;;24.20;46.20;;;;;;5100900;28;20442;-60
2022/08/12 07:43:39;;;;;;;3.70;3.30;;;24.40;46.00;;;;;;5079171;28;20502;-59
2022/08/12 07:46:09;;;;;;;6.30;3.60;;;24.50;45.60;;;;;;5094515;28;20444;-59
2022/08/12 07:48:39;;;;;;;10.27;3.90;;;24.70;45.20;;;;;;5091506;28;20538;-59
2022/08/12 07:51:09;;;;;;;4.87;3.70;;;24.80;44.80;;;;;;5094328;28;20844;-57
2022/08/12 07:53:37;;;;;;;4.57;3.00;;;25.00;44.50;;;;;;5093752;28;20503;-58
2022/08/12 07:56:06;;;;;;;4.17;3.60;;;25.10;44.20;;;;;;5093764;28;20540;-60
2022/08/12 07:58:34;;;;;;;6.67;3.13;;;25.30;44.00;;;;;;5093013;28;20534;-58
2022/08/12 08:01:03;;;;;;;3.90;3.47;;;25.40;43.70;;;;;;5090771;28;20460;-59
2022/08/12 08:03:30;;;;;;;7.80;3.67;;;25.50;43.50;;;;;;5092855;28;20466;-58
2022/08/12 08:05:58;;;;;;;3.60;2.87;;;25.60;43.20;;;;;;5093541;28;20458;-58
2022/08/12 08:08:28;;;;;;;4.17;3.17;;;25.80;42.70;;;;;;5073957;28;20977;-59
2022/08/12 08:13:40;;;;;;;5.07;3.27;;;26.00;41.90;;;;;;5073339;28;20443;-59
2022/08/12 08:16:08;;;;;;;5.50;3.20;;;26.10;41.80;;;;;;5078206;28;20511;-59
2022/08/12 08:18:36;;;;;;;3.80;3.30;;;26.20;41.70;;;;;;5073312;28;20553;-58
2022/08/12 08:21:05;;;;;;;3.40;3.13;;;26.40;41.50;;;;;;5073410;28;20467;-59
2022/08/12 08:26:21;;;;;;;3.80;3.40;;;26.60;40.60;;;;;;5072427;28;20605;-60
2022/08/12 08:28:49;;;;;;;3.67;3.23;;;26.80;40.40;;;;;;5073050;28;20427;-58
2022/08/12 08:31:17;;;;;;;4.47;3.07;;;26.80;40.00;;;;;;5072378;28;20855;-59
2022/08/12 08:33:44;;;;;;;3.37;2.97;;;26.80;39.80;;;;;;5072399;28;20504;-60
2022/08/12 08:36:11;;;;;;;6.13;3.27;;;26.90;39.80;;;;;;5072612;28;20484;-59
2022/08/12 08:38:43;;;;;;;10.77;4.70;;;27.00;39.60;;;;;;5073116;28;20540;-58
2022/08/12 08:43:58;;;;;;;7.63;3.27;;;27.40;39.10;;;;;;5071091;28;20467;-59
2022/08/12 08:46:26;;;;;;;2.63;2.43;;;27.60;38.60;;;;;;5072368;28;20444;-58
2022/08/12 08:48:53;;;;;;;4.27;3.30;;;27.60;38.20;;;;;;5072995;28;20450;-59
2022/08/12 08:51:22;;;;;;;7.73;3.03;;;27.70;37.80;;;;;;5072965;28;20919;-62
2022/08/12 08:53:52;;;;;;;4.40;2.70;;;27.80;37.40;;;;;;5073885;28;20470;-59
2022/08/12 08:56:19;;;;;;;3.57;3.27;;;27.90;36.90;;;;;;5078535;28;20524;-57
2022/08/12 08:58:47;;;;;;;6.00;2.90;;;28.00;36.50;;;;;;5075828;28;20448;-59
2022/08/12 09:01:20;;;;;;;5.00;3.33;;;28.10;36.00;;;;;;5076257;28;20501;-59
2022/08/12 09:03:47;;;;;;;3.50;3.20;;;28.10;35.50;;;;;;5088598;28;20459;-60
2022/08/12 09:06:14;;;;;;;3.40;2.43;;;28.20;35.50;;;;;;5092335;28;20458;-60
2022/08/12 09:08:41;;;;;;;2.70;2.27;;;28.30;35.00;;;;;;5092236;28;20481;-61
2022/08/12 09:13:55;;;;;;;4.40;2.53;;;28.40;33.90;;;;;;5106167;28;20526;-58
2022/08/12 09:16:22;;;;;;;5.27;3.30;;;28.60;33.80;;;;;;5104457;28;20445;-62
2022/08/12 09:18:49;;;;;;;7.13;2.70;;;28.80;33.80;;;;;;5109010;28;20457;-60
2022/08/12 09:21:17;;;;;;;3.33;2.30;;;28.90;33.50;;;;;;5101717;28;20467;-66
2022/08/12 09:23:44;;;;;;;4.50;2.40;;;29.10;32.90;;;;;;5062409;28;20471;-58
2022/08/12 09:26:14;;;;;;;2.60;2.33;;;29.30;32.40;;;;;;5078005;28;20461;-61
2022/08/12 09:28:44;;;;;;;5.90;2.30;;;29.40;31.90;;;;;;5076411;28;20873;-60
2022/08/12 09:31:11;;;;;;;2.83;2.50;;;29.40;31.40;;;;;;5075787;28;20477;-59
2022/08/12 09:33:38;;;;;;;3.50;2.17;;;29.50;31.30;;;;;;5070411;28;20572;-60
2022/08/12 09:36:06;;;;;;;3.50;2.30;;;29.50;30.90;;;;;;5066822;28;20476;-59
2022/08/12 09:38:33;;;;;;;2.83;2.37;;;29.60;30.70;;;;;;5075307;28;20439;-60
2022/08/12 09:41:00;;;;;;;2.27;2.07;;;29.70;30.60;;;;;;5075301;28;20986;-60
2022/08/12 09:46:16;;;;;;;5.03;2.50;;;29.60;29.80;;;;;;5070798;28;20601;-58
2022/08/12 09:48:44;;;;;;;3.80;3.43;;;29.60;29.90;;;;;;5069553;28;20940;-62
2022/08/12 09:51:12;;;;;;;4.87;2.77;;;29.60;30.00;;;;;;5095712;28;20483;-59
2022/08/12 09:53:39;;;;;;;5.70;2.40;;;29.80;29.90;;;;;;5095290;28;20477;-59
2022/08/12 09:56:10;;;;;;;4.57;2.40;;;29.90;29.70;;;;;;5095818;28;20994;-58
2022/08/12 09:58:40;;;;;;;4.37;2.83;;;29.90;29.60;;;;;;5095546;28;20469;-57
2022/08/12 10:01:08;;;;;;;4.93;2.97;;;29.90;29.40;;;;;;5095427;28;20521;-58
2022/08/12 10:03:36;;;;;;;7.07;2.87;;;29.90;29.30;;;;;;5095122;28;20506;-58
2022/08/12 10:06:06;;;;;;;3.93;2.53;;;29.90;29.20;;;;;;5095134;28;20453;-58
2022/08/12 10:08:34;;;;;;;3.30;2.70;;;29.80;29.10;;;;;;5094972;28;20481;-59
2022/08/12 10:13:51;;;;;;;5.73;2.17;;;29.60;28.60;;;;;;5094338;28;20449;-59
2022/08/12 10:16:21;;;;;;;4.70;2.50;;;29.60;28.80;;;;;;5094583;28;20436;-59
2022/08/12 10:18:50;;;;;;;3.77;2.80;;;29.80;28.70;;;;;;5095569;28;20794;-60
2022/08/12 10:21:18;;;;;;;5.63;2.60;;;29.80;28.40;;;;;;5094485;28;21042;-59
2022/08/12 10:23:47;;;;;;;6.03;3.20;;;29.70;28.20;;;;;;5094620;28;20469;-60
2022/08/12 10:31:50;;;;;;;4.10;2.63;;;30.00;28.20;;;;;;5094975;28;20464;-58
2022/08/12 10:34:18;;;;;;;7.13;2.20;;;30.10;28.00;;;;;;5095134;28;20936;-58
2022/08/12 10:36:46;;;;;;;4.80;2.43;;;30.10;27.90;;;;;;5094210;28;20920;-59
2022/08/12 10:39:15;;;;;;;3.73;2.37;;;30.20;27.80;;;;;;5094955;28;20480;-59
2022/08/12 10:44:29;;;;;;;2.83;2.27;;;30.20;27.60;;;;;;5094776;28;20448;-58
2022/08/12 10:46:57;;;;;;;3.13;2.10;;;30.20;27.50;;;;;;5094282;28;20540;-59
2022/08/12 10:49:26;;;;;;;3.03;2.43;;;30.20;27.50;;;;;;5094883;28;20444;-58
2022/08/12 10:51:53;;;;;;;2.63;2.30;;;30.20;27.60;;;;;;5094065;28;20519;-58
2022/08/12 10:54:21;;;;;;;2.33;2.13;;;30.20;27.70;;;;;;5094815;28;20538;-58
2022/08/12 10:56:50;;;;;;;4.20;2.10;;;30.30;27.70;;;;;;5094279;28;20450;-59
2022/08/12 10:59:20;;;;;;;3.37;2.27;;;30.40;27.70;;;;;;5093994;28;20452;-58
2022/08/12 11:01:51;;;;;;;2.00;1.80;;;30.40;27.70;;;;;;5093922;28;20528;-58
2022/08/12 11:04:18;;;;;;;3.80;2.10;;;30.60;27.60;;;;;;5093642;28;20467;-58
2022/08/12 11:06:47;;;;;;;4.53;2.37;;;30.70;27.50;;;;;;5093466;28;20451;-59
2022/08/12 11:09:17;;;;;;;7.73;2.47;;;30.80;27.30;;;;;;5093923;28;20460;-59
2022/08/12 11:11:47;;;;;;;2.37;2.00;;;30.90;27.20;;;;;;5093830;28;20476;-59
2022/08/12 11:14:27;;;;;;;2.87;2.13;;;31.00;27.10;;;;;;5093893;28;20466;-59
2022/08/12 11:16:56;;;;;;;2.07;1.87;;;31.00;27.10;;;;;;5094090;28;20442;-59
2022/08/12 11:19:23;;;;;;;3.30;2.17;;;31.00;27.10;;;;;;5092931;28;20503;-59
2022/08/12 11:21:53;;;;;;;2.50;2.30;;;31.00;27.20;;;;;;5094008;28;20444;-58
2022/08/12 11:24:20;;;;;;;4.23;2.23;;;30.90;27.40;;;;;;5093705;28;20554;-58
2022/08/12 11:26:48;;;;;;;1.90;1.70;;;30.90;27.40;;;;;;5093640;28;20531;-59
2022/08/12 11:29:15;;;;;;;5.50;2.70;;;31.00;27.40;;;;;;5093920;28;20497;-57
2022/08/12 11:31:43;;;;;;;2.23;2.00;;;31.10;27.40;;;;;;5093129;28;20482;-59
2022/08/12 11:34:12;;;;;;;4.97;2.10;;;31.00;27.50;;;;;;5093419;28;20472;-59
2022/08/12 11:36:48;;;;;;;2.80;1.80;;;31.10;27.50;;;;;;5093409;28;20543;-57
2022/08/12 11:39:16;;;;;;;2.60;2.40;;;31.20;27.60;;;;;;5093501;28;20527;-57
2022/08/12 11:41:43;;;;;;;2.70;2.23;;;31.20;27.50;;;;;;5093307;28;20584;-58
2022/08/12 11:44:11;;;;;;;3.90;2.40;;;31.20;27.20;;;;;;5095136;28;20919;-59
2022/08/12 11:46:39;;;;;;;2.70;2.50;;;31.20;27.20;;;;;;5093175;28;20537;-59
2022/08/12 11:49:06;;;;;;;2.47;2.27;;;31.10;27.30;;;;;;5094346;28;21035;-59
2022/08/12 11:51:36;;;;;;;4.07;2.23;;;31.20;27.40;;;;;;5093319;28;21021;-59
2022/08/12 11:54:04;;;;;;;3.50;2.50;;;31.30;27.20;;;;;;5094258;28;20461;-58
2022/08/12 11:56:31;;;;;;;3.30;2.03;;;31.60;26.90;;;;;;5093869;28;20540;-58
2022/08/12 11:58:59;;;;;;;2.53;2.20;;;32.10;26.50;;;;;;5094058;28;20488;-59
2022/08/12 12:01:26;;;;;;;3.50;1.80;;;32.60;26.00;;;;;;5093893;28;20887;-59
2022/08/12 12:03:53;;;;;;;4.93;1.90;;;33.10;25.50;;;;;;5093410;28;20569;-59
2022/08/12 12:06:20;;;;;;;2.20;2.00;;;33.60;25.10;;;;;;5093580;28;20481;-58
2022/08/12 12:08:50;;;;;;;5.10;2.47;;;33.90;24.90;;;;;;5092957;28;20509;-59
2022/08/12 12:11:17;;;;;;;1.70;1.60;;;34.00;24.60;;;;;;5093190;28;20939;-59
2022/08/12 12:13:44;;;;;;;4.63;2.10;;;34.10;24.50;;;;;;5093427;28;20548;-59
2022/08/12 12:16:11;;;;;;;3.07;2.00;;;34.30;24.40;;;;;;5094135;28;20535;-59
2022/08/12 12:18:39;;;;;;;2.70;1.87;;;34.40;24.20;;;;;;5084810;28;20906;-59
2022/08/12 12:21:08;;;;;;;11.97;1.90;;;34.40;24.10;;;;;;5072916;28;20972;-57
2022/08/12 12:23:36;;;;;;;6.93;2.50;;;34.60;24.00;;;;;;5085067;28;20484;-58
2022/08/12 12:26:05;;;;;;;3.30;2.20;;;34.80;23.70;;;;;;5093011;28;20536;-55
2022/08/12 12:28:33;;;;;;;2.60;1.97;;;34.90;22.90;;;;;;5093251;28;20438;-58
2022/08/12 12:31:00;;;;;;;2.27;1.70;;;34.60;22.70;;;;;;5095402;28;20580;-58
2022/08/12 12:33:28;;;;;;;1.77;1.67;;;34.30;22.80;;;;;;5096439;28;20899;-57
2022/08/12 12:35:55;;;;;;;3.40;2.30;;;33.90;22.90;;;;;;5096237;28;20536;-57
2022/08/12 12:38:22;;;;;;;3.03;1.90;;;33.30;23.30;;;;;;5096499;28;20451;-58
2022/08/12 12:40:49;;;;;;;2.90;2.17;;;32.80;23.70;;;;;;5096663;28;20811;-57
2022/08/12 12:43:19;;;;;;;2.90;1.57;;;32.50;24.10;;;;;;5096967;28;20568;-59
2022/08/12 12:45:49;;;;;;;2.13;1.93;;;32.30;24.30;;;;;;5096905;28;20449;-58
2022/08/12 12:48:17;;;;;;;2.60;1.90;;;32.10;24.60;;;;;;5097493;28;20452;-59
2022/08/12 12:50:47;;;;;;;3.57;2.10;;;32.00;24.80;;;;;;5097754;28;20480;-58
2022/08/12 12:53:17;;;;;;;2.80;1.87;;;31.80;24.90;;;;;;5109361;28;20480;-58
2022/08/12 12:55:46;;;;;;;3.60;1.70;;;31.80;25.20;;;;;;5110813;28;20449;-56
2022/08/12 12:58:15;;;;;;;3.33;2.30;;;31.80;25.20;;;;;;5101645;28;20445;-58
2022/08/12 13:00:44;;;;;;;3.03;2.50;;;31.70;25.20;;;;;;5096971;28;20445;-58
2022/08/12 13:03:13;;;;;;;4.10;2.13;;;31.70;25.30;;;;;;5097491;28;20909;-57
2022/08/12 13:05:42;;;;;;;3.33;2.20;;;31.70;25.30;;;;;;5097847;28;20460;-58
2022/08/12 13:08:23;;;;;;;7.70;2.30;;;31.70;25.50;;;;;;5097912;28;20552;-58
2022/08/12 13:10:51;;;;;;;2.40;2.03;;;31.70;25.60;;;;;;5097474;28;20468;-59
2022/08/12 13:13:18;;;;;;;3.90;2.20;;;31.70;25.60;;;;;;5096369;28;20475;-56
2022/08/12 13:15:48;;;;;;;3.50;1.90;;;31.80;25.60;;;;;;5097810;28;20447;-57
2022/08/12 13:18:16;;;;;;;2.87;2.10;;;31.80;25.50;;;;;;5096880;28;20457;-58
2022/08/12 13:20:44;;;;;;;6.13;2.30;;;31.80;25.30;;;;;;5096662;28;20522;-58
2022/08/12 13:23:12;;;;;;;2.80;2.37;;;31.80;25.30;;;;;;5096215;28;20559;-58
2022/08/12 13:25:40;;;;;;;3.10;2.20;;;31.80;25.30;;;;;;5095929;28;20921;-59
2022/08/12 13:28:08;;;;;;;3.20;2.20;;;31.80;25.20;;;;;;5095965;28;20453;-57
2022/08/12 13:30:36;;;;;;;3.23;2.80;;;31.80;25.20;;;;;;5096182;28;20553;-58
2022/08/12 13:33:05;;;;;;;2.50;1.83;;;31.80;25.10;;;;;;5095516;28;20462;-59
2022/08/12 13:35:34;;;;;;;4.43;2.07;;;31.80;25.10;;;;;;5095760;28;20534;-58
2022/08/12 13:38:02;;;;;;;2.20;1.73;;;31.70;25.00;;;;;;5095600;28;20639;-57
2022/08/12 13:40:31;;;;;;;1.87;1.77;;;31.70;25.30;;;;;;5095517;28;20856;-58
2022/08/12 13:43:00;;;;;;;3.00;1.87;;;31.70;25.50;;;;;;5095550;28;20471;-57
2022/08/12 13:45:29;;;;;;;3.67;1.60;;;31.80;25.60;;;;;;5095824;28;20557;-57
2022/08/12 13:47:58;;;;;;;2.63;2.27;;;31.80;25.50;;;;;;5095701;28;20456;-59
2022/08/12 13:50:31;;;;;;;2.53;2.17;;;31.70;25.30;;;;;;5095310;28;20995;-59
2022/08/12 13:53:00;;;;;;;5.43;2.60;;;31.60;25.40;;;;;;5095795;28;20495;-57
2022/08/12 13:55:27;;;;;;;3.87;1.90;;;31.60;25.40;;;;;;5095677;28;20562;-58
2022/08/12 13:57:55;;;;;;;2.20;1.77;;;31.60;25.50;;;;;;5094979;28;20538;-57
2022/08/12 14:00:24;;;;;;;4.20;2.10;;;31.60;25.50;;;;;;5095040;28;20535;-58
2022/08/12 14:02:52;;;;;;;5.10;1.90;;;31.60;25.50;;;;;;5095284;28;20529;-58
2022/08/12 14:05:20;;;;;;;3.20;2.17;;;31.60;25.20;;;;;;5095272;28;20451;-58
2022/08/12 14:07:57;;;;;;;4.20;1.87;;;31.50;25.00;;;;;;5096257;28;20477;-59
2022/08/12 14:10:39;;;;;;;3.33;2.40;;;31.50;25.00;;;;;;5095224;28;20460;-59
2022/08/12 14:13:08;;;;;;;4.23;2.40;;;31.50;25.10;;;;;;5094864;28;20469;-58
2022/08/12 14:15:36;;;;;;;2.93;1.90;;;31.40;25.10;;;;;;5094694;28;20962;-58
2022/08/12 14:18:21;;;;;;;3.17;1.90;;;31.50;25.30;;;;;;5094868;28;20530;-58
2022/08/12 14:20:51;;;;;;;2.73;2.00;;;31.50;25.40;;;;;;5095599;28;20460;-58
2022/08/12 14:23:20;;;;;;;6.67;2.50;;;31.60;25.30;;;;;;5095041;28;20552;-58
2022/08/12 14:25:49;;;;;;;5.23;2.10;;;31.50;25.20;;;;;;5094976;28;20531;-58
2022/08/12 14:28:18;;;;;;;2.60;2.10;;;31.40;25.30;;;;;;5094981;28;20444;-58
2022/08/12 14:30:50;;;;;;;4.50;1.73;;;31.30;25.30;;;;;;5095532;28;20477;-56
2022/08/12 14:33:17;;;;;;;2.63;2.43;;;31.20;25.20;;;;;;5095160;28;20474;-57
2022/08/12 14:35:44;;;;;;;4.40;2.70;;;31.20;25.20;;;;;;5095442;28;21051;-59
2022/08/12 14:38:22;;;;;;;6.40;2.40;;;31.10;25.20;;;;;;5095058;28;20442;-58
2022/08/12 14:40:51;;;;;;;2.73;1.90;;;31.10;25.20;;;;;;5095072;28;20514;-59
2022/08/12 14:43:19;;;;;;;3.13;2.03;;;31.10;25.20;;;;;;5095266;28;20535;-57
2022/08/12 14:45:47;;;;;;;4.47;2.03;;;31.00;25.20;;;;;;5094273;28;20828;-58
2022/08/12 14:48:17;;;;;;;3.40;2.17;;;31.10;25.20;;;;;;5094439;28;20532;-58